CheckWX is a tool to help pilots better visualize weather data.  It is not intended as a substitute for an official pre-flight weather briefing.

13:11:17 UTC

KSFF METAR
Felts Field Airport
Spokane, Washington, USA
Current

18 mins ago

KSFF 221253Z AUTO VRB03KT 9SM OVC010 M08/M09 A3006 RMK AO2 SLP202 T10781094
Observed
Feb-22 @ 12:53 UTC
Wind
  • Variable at 3 KTS
Visibility
9 SM
Flight Rules
MVFR
Cloud Levels
  • Overcast at 1,000' AGL
Temperature
-8°C / 18°F
Dewpoint
-9°C / 16°F
Humidity
93%
Altimeter
30.06" Hg
Pressure
1020.2 hPa
Previous

20 mins ago

KSFF 221251Z AUTO VRB03KT 9SM OVC010 M08/M09 A3006 RMK AO2
Observed
Feb-22 @ 12:51 UTC
Wind
  • Variable at 3 KTS
Visibility
9 SM
Flight Rules
MVFR
Cloud Levels
  • Overcast at 1,000' AGL
Temperature
-8°C / 18°F
Dewpoint
-9°C / 16°F
Humidity
93%
Altimeter
30.06" Hg
Pressure
1017.92 hPa
Previous

50 mins ago

KSFF 221221Z AUTO 06005KT 10SM OVC009 M09/M11 A3007 RMK AO2 T10891111
Observed
Feb-22 @ 12:21 UTC
Wind
  • 060° at 5 KTS
Visibility
10 SM
Flight Rules
IFR
Cloud Levels
  • Overcast at 900' AGL
Temperature
-9°C / 16°F
Dewpoint
-11°C / 12°F
Humidity
86%
Altimeter
30.07" Hg
Pressure
1018.32 hPa